Time;durP1;ratioP1;P1;durP2;ratioP2;P2;SDS_P1;SDS_P2;PMS_P1;PMS_P2;Temp;Humidity;BMP_temperature;BMP_pressure;BME280_temperature;BME280_humidity;BME280_pressure;Samples;Min_cycle;Max_cycle;Signal;HPM_P1;HPM_P2
2023/09/11 00:03:01;;;;;;;10.00;9.10;;;19.70;1.00;;;;;;5028036;28;20902;-84
2023/09/11 00:05:59;;;;;;;9.45;8.55;;;19.00;1.00;;;;;;5037333;28;20832;-84
2023/09/11 00:15:35;;;;;;;9.73;8.75;;;19.00;1.00;;;;;;5040938;28;20393;-84
2023/09/11 00:18:59;;;;;;;9.82;9.02;;;19.20;1.00;;;;;;5054750;28;20513;-83
2023/09/11 00:38:32;;;;;;;;;;;;;;;;;;;;;
2023/09/11 00:48:30;;;;;;;9.00;8.10;;;19.00;1.00;;;;;;4945873;29;20465;-84
2023/09/11 00:51:14;;;;;;;9.68;8.18;;;18.80;1.00;;;;;;4955233;28;20453;-83
2023/09/11 00:57:23;;;;;;;9.38;8.57;;;18.40;1.00;;;;;;4972736;28;20443;-84
2023/09/11 01:00:25;;;;;;;9.57;8.63;;;18.80;1.00;;;;;;5017551;28;21015;-83
2023/09/11 01:03:29;;;;;;;10.25;8.30;;;21.10;1.00;;;;;;5018073;28;20407;-83
2023/09/11 01:05:55;;;;;;;9.70;8.70;;;17.20;1.00;;;;;;5055982;22;20790;-87
2023/09/11 01:08:21;;;;;;;9.35;8.55;;;17.70;1.00;;;;;;5082254;28;20386;-87
2023/09/11 01:10:48;;;;;;;11.57;8.80;;;18.70;1.00;;;;;;5051437;28;20400;-87
2023/09/11 01:13:13;;;;;;;9.55;8.55;;;18.70;1.00;;;;;;5052078;28;20433;-87
2023/09/11 01:15:48;;;;;;;11.90;8.50;;;19.40;1.00;;;;;;5062477;28;20381;-86
2023/09/11 01:18:38;;;;;;;10.70;9.23;;;20.10;1.00;;;;;;5056143;28;20395;-87
2023/09/11 01:21:38;;;;;;;9.18;8.38;;;18.70;1.00;;;;;;5060397;28;20477;-86
2023/09/11 01:24:15;;;;;;;9.52;8.63;;;18.70;1.00;;;;;;5049067;28;20426;-86
2023/09/11 01:27:06;;;;;;;9.18;8.20;;;18.60;1.00;;;;;;5026206;28;20409;-87
2023/09/11 01:29:34;;;;;;;9.50;8.60;;;18.60;1.00;;;;;;4993940;28;20418;-87
2023/09/11 01:32:02;;;;;;;9.38;8.48;;;18.10;1.00;;;;;;5018114;28;20403;-87
2023/09/11 01:34:28;;;;;;;9.98;8.98;;;18.50;1.00;;;;;;5055449;28;20423;-86
2023/09/11 01:36:53;;;;;;;9.63;8.47;;;17.00;1.00;;;;;;5054932;28;20383;-86
2023/09/11 01:39:19;;;;;;;9.00;8.10;;;17.40;1.00;;;;;;5042187;28;20390;-86
2023/09/11 01:41:47;;;;;;;10.05;9.05;;;20.10;1.00;;;;;;5033018;28;20414;-86
2023/09/11 01:44:29;;;;;;;10.10;8.80;;;18.70;1.00;;;;;;5032069;28;20468;-86
2023/09/11 01:46:57;;;;;;;8.85;8.05;;;18.50;1.00;;;;;;5034091;28;20489;-86
2023/09/11 01:49:24;;;;;;;8.90;8.10;;;18.90;1.00;;;;;;5033682;28;20470;-87
2023/09/11 01:51:51;;;;;;;9.32;8.20;;;18.70;1.00;;;;;;5031384;28;20422;-86
2023/09/11 01:54:18;;;;;;;9.30;8.50;;;17.90;1.00;;;;;;5031747;28;20390;-87
2023/09/11 01:56:43;;;;;;;9.13;8.30;;;18.60;1.00;;;;;;5033620;28;20414;-87
2023/09/11 01:59:09;;;;;;;8.97;8.10;;;18.70;1.00;;;;;;5039298;28;20387;-86
2023/09/11 02:01:34;;;;;;;9.40;8.40;;;18.70;1.00;;;;;;5036372;28;20391;-87
2023/09/11 02:04:00;;;;;;;9.50;8.60;;;18.70;1.00;;;;;;5034772;28;20391;-87
2023/09/11 02:06:25;;;;;;;9.88;8.98;;;18.70;1.00;;;;;;5032013;28;20439;-87
2023/09/11 02:08:51;;;;;;;9.20;8.37;;;18.70;1.00;;;;;;5030960;28;20763;-86
2023/09/11 02:11:17;;;;;;;9.88;8.85;;;18.60;1.00;;;;;;5030627;28;20997;-87
2023/09/11 02:13:42;;;;;;;9.50;8.45;;;18.80;1.00;;;;;;5030983;28;20395;-86
2023/09/11 02:16:08;;;;;;;8.93;8.00;;;18.50;1.00;;;;;;5030794;28;20406;-86
2023/09/11 02:18:33;;;;;;;9.63;8.63;;;18.60;1.00;;;;;;5030515;28;20390;-87
2023/09/11 02:21:00;;;;;;;9.57;8.43;;;18.30;1.00;;;;;;5019838;28;20563;-87
2023/09/11 02:23:26;;;;;;;8.95;8.20;;;20.10;1.00;;;;;;5027659;28;20438;-87
2023/09/11 02:25:53;;;;;;;9.63;8.82;;;18.40;1.00;;;;;;5029880;28;20450;-86
2023/09/11 02:28:18;;;;;;;9.13;8.23;;;18.70;1.00;;;;;;5030952;28;20430;-87
2023/09/11 02:30:44;;;;;;;9.27;8.38;;;19.30;1.00;;;;;;5030314;28;20429;-87
2023/09/11 02:33:09;;;;;;;9.30;7.73;;;17.20;1.00;;;;;;5030928;28;20413;-87
2023/09/11 02:35:35;;;;;;;10.20;9.23;;;18.40;1.00;;;;;;5031866;28;20890;-87
2023/09/11 02:38:00;;;;;;;13.27;8.80;;;18.20;1.00;;;;;;5032515;28;20398;-86
2023/09/11 02:40:26;;;;;;;9.90;9.00;;;18.40;1.00;;;;;;5031861;28;20402;-86
2023/09/11 02:42:51;;;;;;;9.40;8.60;;;18.30;1.00;;;;;;5046107;28;20462;-86
2023/09/11 02:45:17;;;;;;;9.80;8.90;;;19.10;1.00;;;;;;5054158;28;20418;-86
2023/09/11 02:47:42;;;;;;;10.37;9.27;;;18.10;1.00;;;;;;5053095;28;20379;-87
2023/09/11 02:50:08;;;;;;;11.10;9.20;;;18.10;1.00;;;;;;5032528;28;20410;-86
2023/09/11 02:52:34;;;;;;;9.60;8.70;;;18.10;1.00;;;;;;5031022;28;20402;-86
2023/09/11 02:54:59;;;;;;;10.20;9.20;;;17.20;1.00;;;;;;5055363;28;20391;-86
2023/09/11 02:57:25;;;;;;;9.77;8.87;;;17.10;1.00;;;;;;5036001;28;20407;-86
2023/09/11 02:59:55;;;;;;;9.40;8.50;;;18.10;1.00;;;;;;5031489;28;20395;-86
2023/09/11 03:02:23;;;;;;;9.70;8.70;;;18.00;1.00;;;;;;5030927;28;20402;-86
2023/09/11 03:04:51;;;;;;;10.10;9.20;;;17.50;1.00;;;;;;5031302;28;20409;-87
2023/09/11 03:07:20;;;;;;;10.30;9.20;;;18.00;1.00;;;;;;5030874;28;20403;-86
2023/09/11 03:09:46;;;;;;;10.05;9.05;;;17.90;1.00;;;;;;5031547;28;20472;-87
2023/09/11 03:12:11;;;;;;;10.02;9.13;;;18.00;1.00;;;;;;5029629;28;20414;-87
2023/09/11 03:14:37;;;;;;;9.27;8.40;;;17.60;1.00;;;;;;5031424;28;20390;-86
2023/09/11 03:17:02;;;;;;;10.50;9.50;;;18.00;1.00;;;;;;5031143;28;20461;-86
2023/09/11 03:19:28;;;;;;;9.90;9.10;;;17.90;1.00;;;;;;5037817;28;20406;-87
2023/09/11 03:21:54;;;;;;;10.00;8.70;;;17.80;1.00;;;;;;5034352;28;20641;-87
2023/09/11 03:24:20;;;;;;;9.57;8.77;;;17.80;1.00;;;;;;5020954;28;20412;-87
2023/09/11 03:26:46;;;;;;;10.07;9.07;;;20.10;1.00;;;;;;5013442;28;20766;-87
2023/09/11 03:29:12;;;;;;;10.10;9.20;;;17.50;1.00;;;;;;5031422;28;20387;-86
2023/09/11 03:31:37;;;;;;;10.45;9.50;;;17.90;1.00;;;;;;5029576;28;20390;-85
2023/09/11 03:34:03;;;;;;;10.30;9.40;;;17.40;1.00;;;;;;5030466;28;20419;-86
2023/09/11 03:36:29;;;;;;;9.50;8.65;;;17.90;1.00;;;;;;5029879;28;20391;-86
2023/09/11 03:38:54;;;;;;;10.90;8.60;;;16.90;1.00;;;;;;5034227;28;20391;-86
2023/09/11 03:41:20;;;;;;;9.67;8.80;;;17.90;1.00;;;;;;5034109;28;20387;-86
2023/09/11 03:43:45;;;;;;;9.90;8.98;;;17.80;1.00;;;;;;5035779;28;20395;-87
2023/09/11 03:46:14;;;;;;;10.03;8.87;;;17.60;1.00;;;;;;5033792;28;20403;-86
2023/09/11 03:48:41;;;;;;;9.35;8.55;;;17.80;1.00;;;;;;5035165;28;20893;-86
2023/09/11 03:51:06;;;;;;;9.85;8.85;;;16.60;1.00;;;;;;5035001;28;20387;-86
2023/09/11 03:53:32;;;;;;;9.70;8.90;;;17.80;1.00;;;;;;5035121;28;20458;-86
2023/09/11 03:55:58;;;;;;;9.80;8.90;;;17.40;1.00;;;;;;5034061;28;20913;-86
2023/09/11 03:58:23;;;;;;;9.63;8.87;;;17.70;1.00;;;;;;5033933;28;20383;-86
2023/09/11 04:00:49;;;;;;;10.68;9.57;;;16.50;1.00;;;;;;5035059;28;20386;-86
2023/09/11 04:03:14;;;;;;;9.87;8.87;;;17.60;1.00;;;;;;5034811;28;20391;-86
2023/09/11 04:05:40;;;;;;;9.48;8.68;;;17.60;1.00;;;;;;5033571;28;20410;-86
2023/09/11 04:08:05;;;;;;;10.23;9.17;;;17.50;1.00;;;;;;5033422;28;20399;-86
2023/09/11 04:10:31;;;;;;;11.80;10.40;;;17.50;1.00;;;;;;5033348;28;20387;-86
2023/09/11 04:12:56;;;;;;;9.48;8.68;;;17.30;1.00;;;;;;5034400;28;20406;-86
2023/09/11 04:15:22;;;;;;;10.63;9.70;;;17.40;1.00;;;;;;5033342;28;20474;-86
2023/09/11 04:17:47;;;;;;;10.00;9.00;;;17.70;1.00;;;;;;5034617;28;20437;-86
2023/09/11 04:20:13;;;;;;;10.20;9.00;;;17.60;1.00;;;;;;5029642;28;20428;-86
2023/09/11 04:22:38;;;;;;;10.13;9.13;;;17.60;1.00;;;;;;5015798;28;20515;-86
2023/09/11 04:25:04;;;;;;;9.65;8.73;;;17.60;1.00;;;;;;5031026;28;20403;-86
2023/09/11 04:27:30;;;;;;;9.70;8.90;;;17.60;1.00;;;;;;5032986;28;20994;-87
2023/09/11 04:29:56;;;;;;;10.37;9.27;;;17.30;1.00;;;;;;5033161;28;20747;-87
2023/09/11 04:32:22;;;;;;;9.30;8.50;;;17.70;1.00;;;;;;5034638;28;20754;-86
2023/09/11 04:34:47;;;;;;;10.27;9.38;;;17.60;1.00;;;;;;5034955;28;20406;-86
2023/09/11 04:37:13;;;;;;;9.60;8.63;;;17.60;1.00;;;;;;5038687;28;20415;-87
2023/09/11 04:39:39;;;;;;;10.65;9.60;;;17.50;1.00;;;;;;5043212;28;20391;-87
2023/09/11 04:42:05;;;;;;;10.52;9.38;;;16.70;1.00;;;;;;5040189;28;20394;-86
2023/09/11 04:44:31;;;;;;;9.80;8.95;;;17.60;1.00;;;;;;5051342;28;20423;-86
2023/09/11 04:46:56;;;;;;;9.60;8.80;;;17.70;1.00;;;;;;5047262;28;20403;-86
2023/09/11 04:49:22;;;;;;;10.00;9.07;;;17.40;1.00;;;;;;5034150;28;20383;-87
2023/09/11 04:51:48;;;;;;;9.73;8.93;;;17.70;1.00;;;;;;5033950;28;20399;-87
2023/09/11 04:54:14;;;;;;;10.45;9.35;;;17.80;1.00;;;;;;5032854;28;20813;-87
2023/09/11 04:56:39;;;;;;;10.05;9.05;;;17.70;1.00;;;;;;5034097;28;20430;-87
2023/09/11 04:59:05;;;;;;;10.47;9.57;;;17.70;1.00;;;;;;5034022;28;20387;-87
2023/09/11 05:01:30;;;;;;;13.15;10.45;;;18.80;1.00;;;;;;5032779;28;20387;-86
2023/09/11 05:03:56;;;;;;;11.00;9.80;;;17.70;1.00;;;;;;5033483;28;20867;-87
2023/09/11 05:06:22;;;;;;;10.37;9.47;;;20.00;1.00;;;;;;5035830;28;20494;-87
2023/09/11 05:08:47;;;;;;;10.50;9.40;;;17.60;1.00;;;;;;5032556;28;20490;-87
2023/09/11 05:11:13;;;;;;;10.20;9.30;;;17.50;1.00;;;;;;5033675;28;20470;-87
2023/09/11 05:13:38;;;;;;;9.98;9.15;;;17.50;1.00;;;;;;5033846;28;20398;-88
2023/09/11 05:16:04;;;;;;;10.50;9.40;;;17.00;1.00;;;;;;5033014;28;20399;-87
2023/09/11 05:18:29;;;;;;;10.50;9.40;;;17.40;1.00;;;;;;5033553;28;20387;-88
2023/09/11 05:20:55;;;;;;;10.20;9.23;;;17.50;1.00;;;;;;5022608;28;20385;-88
2023/09/11 05:23:21;;;;;;;10.30;9.30;;;17.40;1.00;;;;;;5022210;28;20888;-88
2023/09/11 05:25:47;;;;;;;11.47;9.53;;;17.30;1.00;;;;;;5032304;28;20914;-87
2023/09/11 05:28:12;;;;;;;9.77;8.90;;;19.30;1.00;;;;;;5033990;28;20391;-88
2023/09/11 05:30:38;;;;;;;11.03;9.90;;;17.10;1.00;;;;;;5036674;28;20444;-88
2023/09/11 05:33:04;;;;;;;10.70;9.63;;;16.00;1.00;;;;;;5050996;28;20517;-87
2023/09/11 05:35:31;;;;;;;10.87;8.93;;;17.40;1.00;;;;;;5050922;28;20379;-87
2023/09/11 05:37:56;;;;;;;11.30;9.68;;;17.70;1.00;;;;;;5051160;28;20401;-87
2023/09/11 05:40:22;;;;;;;10.50;9.40;;;17.20;1.00;;;;;;5050059;28;20395;-87
2023/09/11 05:42:47;;;;;;;10.15;9.15;;;17.10;1.00;;;;;;5051466;28;20406;-87
2023/09/11 05:45:13;;;;;;;10.00;9.10;;;17.20;1.00;;;;;;5049811;28;20411;-88
2023/09/11 05:47:39;;;;;;;10.30;9.20;;;17.40;1.00;;;;;;5051936;28;20392;-87
2023/09/11 05:50:05;;;;;;;13.77;9.65;;;16.20;1.00;;;;;;5037860;28;20391;-87
2023/09/11 05:52:31;;;;;;;11.10;9.90;;;17.50;1.00;;;;;;5035218;28;20433;-87
2023/09/11 05:54:56;;;;;;;10.03;9.10;;;16.40;1.00;;;;;;5034167;28;20395;-87
2023/09/11 05:57:22;;;;;;;10.50;9.40;;;16.50;1.00;;;;;;5034123;28;20398;-87
2023/09/11 05:59:48;;;;;;;10.65;9.23;;;16.40;1.00;;;;;;5033680;28;20406;-87
2023/09/11 06:02:13;;;;;;;10.90;9.50;;;17.60;1.00;;;;;;5031572;28;20387;-88
2023/09/11 06:04:39;;;;;;;10.63;9.23;;;17.70;1.00;;;;;;5037036;28;20521;-88
2023/09/11 06:07:04;;;;;;;10.00;9.00;;;17.80;1.00;;;;;;5034437;28;20406;-88
2023/09/11 06:09:30;;;;;;;10.07;9.07;;;17.80;1.00;;;;;;5032278;28;20446;-88
2023/09/11 06:11:56;;;;;;;9.93;8.95;;;16.90;1.00;;;;;;5034642;28;20401;-88
2023/09/11 06:14:22;;;;;;;10.13;9.23;;;17.80;1.00;;;;;;5033413;28;20403;-88
2023/09/11 06:16:48;;;;;;;10.23;9.23;;;17.90;1.00;;;;;;5031389;28;20387;-87
2023/09/11 06:19:14;;;;;;;10.17;9.07;;;16.60;1.00;;;;;;5033162;28;20453;-88
2023/09/11 06:21:39;;;;;;;9.90;8.90;;;18.00;1.00;;;;;;5029217;28;20395;-87
2023/09/11 06:24:05;;;;;;;10.00;9.10;;;19.00;1.00;;;;;;5039206;28;20894;-88
2023/09/11 06:26:31;;;;;;;10.43;9.37;;;18.20;1.00;;;;;;5032269;28;20411;-89
2023/09/11 06:28:56;;;;;;;9.90;9.00;;;16.90;1.00;;;;;;5031621;28;20431;-88
2023/09/11 06:31:22;;;;;;;11.65;9.60;;;20.20;1.00;;;;;;5033666;28;20391;-88
2023/09/11 06:33:48;;;;;;;9.35;8.45;;;18.50;1.00;;;;;;5055374;28;20406;-87
2023/09/11 06:36:14;;;;;;;10.02;9.13;;;18.40;1.00;;;;;;5042092;28;20414;-87
2023/09/11 06:38:40;;;;;;;9.75;8.80;;;18.50;1.00;;;;;;5033654;28;20864;-87
2023/09/11 06:41:05;;;;;;;12.30;10.00;;;19.50;1.00;;;;;;5034110;28;20478;-87
2023/09/11 06:43:31;;;;;;;10.50;9.50;;;19.20;1.00;;;;;;5032151;28;20375;-88
2023/09/11 06:45:57;;;;;;;9.85;8.85;;;18.70;1.00;;;;;;5031382;28;20409;-88
2023/09/11 06:48:22;;;;;;;9.87;9.07;;;18.10;1.00;;;;;;5032598;28;20380;-88
2023/09/11 06:50:51;;;;;;;10.00;9.10;;;18.70;1.00;;;;;;5030968;28;20395;-88
2023/09/11 06:53:16;;;;;;;10.10;9.10;;;19.00;1.00;;;;;;5032268;28;20425;-88
2023/09/11 06:55:46;;;;;;;11.93;9.57;;;18.80;1.00;;;;;;5030619;28;20452;-87
2023/09/11 06:58:12;;;;;;;9.30;8.50;;;19.10;1.00;;;;;;5030724;28;20478;-88
2023/09/11 07:00:38;;;;;;;10.63;9.60;;;19.00;1.00;;;;;;5030043;28;20395;-87
2023/09/11 07:03:04;;;;;;;10.40;9.40;;;18.20;1.00;;;;;;5030712;28;20391;-86
2023/09/11 07:05:29;;;;;;;10.85;9.50;;;19.40;1.00;;;;;;5031390;28;20494;-88
2023/09/11 07:07:55;;;;;;;10.17;9.07;;;19.10;1.00;;;;;;5079892;22;20429;-85
2023/09/11 07:10:21;;;;;;;9.40;8.60;;;19.60;1.00;;;;;;5059286;28;20378;-85
2023/09/11 07:12:49;;;;;;;10.68;9.57;;;19.70;1.00;;;;;;5064216;28;20390;-86
2023/09/11 07:15:15;;;;;;;9.65;8.80;;;19.80;1.00;;;;;;5057181;28;20411;-86
2023/09/11 07:17:41;;;;;;;9.90;8.90;;;19.70;1.00;;;;;;5072937;28;20433;-86
2023/09/11 07:20:09;;;;;;;9.60;8.70;;;21.20;1.00;;;;;;5058014;28;20381;-84
2023/09/11 07:22:34;;;;;;;10.07;9.10;;;20.10;1.00;;;;;;5063967;28;20392;-85
2023/09/11 07:25:00;;;;;;;9.73;8.73;;;20.20;1.00;;;;;;5076168;28;20479;-84
2023/09/11 07:27:33;;;;;;;9.27;8.40;;;20.30;1.00;;;;;;5057027;28;20453;-85
2023/09/11 07:30:03;;;;;;;9.88;9.00;;;20.40;1.00;;;;;;5054616;28;20386;-85
2023/09/11 07:32:30;;;;;;;10.40;9.50;;;20.50;1.00;;;;;;5046940;28;20385;-85
2023/09/11 07:34:56;;;;;;;9.47;8.57;;;20.60;1.00;;;;;;5039770;28;20389;-85
2023/09/11 07:37:21;;;;;;;9.63;8.63;;;20.70;1.00;;;;;;5048279;28;20421;-85
2023/09/11 07:39:47;;;;;;;8.90;8.00;;;20.80;1.00;;;;;;5083371;28;20391;-85
2023/09/11 07:42:12;;;;;;;9.20;8.40;;;20.90;1.00;;;;;;5062695;28;20786;-85
2023/09/11 07:44:38;;;;;;;8.90;8.20;;;21.00;1.00;;;;;;5063117;28;20468;-85
2023/09/11 07:47:03;;;;;;;9.03;8.23;;;21.10;1.00;;;;;;5067152;28;20478;-84
2023/09/11 07:49:29;;;;;;;7.87;7.27;;;21.20;1.00;;;;;;5043914;28;20492;-85
2023/09/11 07:51:55;;;;;;;8.20;7.30;;;20.90;1.00;;;;;;5064915;28;20395;-84
2023/09/11 07:54:21;;;;;;;8.40;7.60;;;21.70;1.00;;;;;;5061531;28;20388;-84
2023/09/11 07:56:46;;;;;;;8.90;8.18;;;20.30;1.00;;;;;;5060196;28;20463;-84
2023/09/11 07:59:12;;;;;;;9.18;8.30;;;21.60;1.00;;;;;;5059782;28;20400;-85
2023/09/11 08:01:37;;;;;;;8.90;8.10;;;22.90;1.00;;;;;;5054936;28;20375;-85
2023/09/11 08:04:04;;;;;;;8.70;7.70;;;21.60;1.00;;;;;;5035817;28;20804;-85
2023/09/11 08:06:29;;;;;;;8.88;7.97;;;21.90;1.00;;;;;;5046897;28;20483;-86
2023/09/11 08:08:56;;;;;;;8.80;8.00;;;20.60;1.00;;;;;;5053556;28;20937;-85
2023/09/11 08:11:21;;;;;;;9.07;8.38;;;22.20;1.00;;;;;;5071678;28;20410;-85
2023/09/11 08:13:49;;;;;;;8.85;8.15;;;22.40;1.00;;;;;;5055260;28;20894;-85
2023/09/11 08:16:16;;;;;;;9.55;8.05;;;22.80;1.00;;;;;;5059919;28;20398;-85
2023/09/11 08:18:42;;;;;;;8.82;8.13;;;23.20;1.00;;;;;;5068821;28;20790;-85
2023/09/11 08:21:07;;;;;;;8.90;8.10;;;22.70;1.00;;;;;;5065327;28;20398;-85
2023/09/11 08:23:33;;;;;;;10.83;8.20;;;22.70;1.00;;;;;;5063708;28;20423;-85
2023/09/11 08:26:01;;;;;;;8.63;7.83;;;22.70;1.00;;;;;;5068109;28;20440;-85
2023/09/11 08:28:27;;;;;;;9.48;8.48;;;23.20;1.00;;;;;;5067142;28;20389;-84
2023/09/11 08:30:53;;;;;;;8.90;8.02;;;23.00;1.00;;;;;;5075473;28;20438;-85
2023/09/11 08:33:21;;;;;;;8.80;7.90;;;23.10;1.00;;;;;;5084576;28;20866;-85
2023/09/11 08:35:50;;;;;;;8.70;7.88;;;23.20;1.00;;;;;;5085247;28;20395;-85
2023/09/11 08:38:19;;;;;;;9.38;8.48;;;22.20;1.00;;;;;;5069507;28;20383;-84
2023/09/11 08:40:45;;;;;;;8.40;7.60;;;23.50;1.00;;;;;;5080347;28;20490;-85
2023/09/11 08:43:11;;;;;;;8.00;7.30;;;22.10;1.00;;;;;;5060638;28;20392;-86
2023/09/11 08:45:37;;;;;;;9.00;8.20;;;23.50;1.00;;;;;;5084470;28;20403;-85
2023/09/11 08:48:09;;;;;;;9.57;8.75;;;23.50;1.00;;;;;;5077208;28;20379;-85
2023/09/11 08:50:36;;;;;;;11.55;7.72;;;23.50;1.00;;;;;;5059107;28;20468;-87
2023/09/11 08:53:02;;;;;;;9.60;8.30;;;23.70;1.00;;;;;;5050380;28;20389;-85
2023/09/11 08:55:29;;;;;;;9.05;8.25;;;24.10;1.00;;;;;;5057798;28;20446;-84
2023/09/11 08:57:59;;;;;;;9.70;8.70;;;25.20;1.00;;;;;;5045789;28;20757;-86
2023/09/11 09:00:27;;;;;;;9.40;8.50;;;24.30;1.00;;;;;;5053061;28;20397;-84
2023/09/11 09:02:53;;;;;;;8.88;8.02;;;24.30;1.00;;;;;;5051164;28;20439;-86
2023/09/11 09:05:20;;;;;;;9.68;8.77;;;24.80;1.00;;;;;;5066862;28;20841;-85
2023/09/11 09:07:47;;;;;;;11.55;9.98;;;24.60;1.00;;;;;;5048284;28;20393;-86
2023/09/11 09:10:13;;;;;;;11.20;9.23;;;24.70;1.00;;;;;;5057783;28;20412;-85
2023/09/11 09:12:39;;;;;;;18.05;9.82;;;25.50;1.00;;;;;;5068347;28;20379;-85
2023/09/11 09:15:06;;;;;;;11.27;8.95;;;24.90;1.00;;;;;;5089225;28;20379;-85
2023/09/11 09:17:32;;;;;;;9.93;8.93;;;24.80;1.00;;;;;;5086878;28;20384;-86
2023/09/11 09:19:57;;;;;;;10.10;9.10;;;25.30;1.00;;;;;;5065008;28;20394;-84
2023/09/11 09:22:23;;;;;;;9.57;8.77;;;24.80;1.00;;;;;;5048035;28;20393;-86
2023/09/11 09:24:55;;;;;;;9.52;8.65;;;24.40;1.00;;;;;;5079696;28;20418;-85
2023/09/11 09:27:24;;;;;;;10.40;9.30;;;25.00;1.00;;;;;;5046878;28;20413;-85
2023/09/11 09:29:50;;;;;;;10.55;9.05;;;25.00;1.00;;;;;;5065043;28;20469;-85
2023/09/11 09:32:17;;;;;;;10.15;8.85;;;25.20;1.00;;;;;;5054117;28;20413;-85
2023/09/11 09:34:54;;;;;;;9.52;8.63;;;24.70;1.00;;;;;;5045212;28;20389;-84
2023/09/11 09:37:20;;;;;;;9.60;8.70;;;25.50;1.00;;;;;;5058889;28;20388;-86
2023/09/11 09:39:50;;;;;;;10.63;9.40;;;25.50;1.00;;;;;;5066494;28;20850;-86
2023/09/11 09:42:16;;;;;;;12.63;8.48;;;25.30;1.00;;;;;;5070487;28;20368;-85
2023/09/11 09:44:49;;;;;;;8.90;8.10;;;26.30;1.00;;;;;;5080333;28;20474;-84
2023/09/11 09:47:21;;;;;;;10.70;8.98;;;26.50;1.00;;;;;;5074124;28;20418;-84
2023/09/11 09:49:48;;;;;;;9.80;8.80;;;25.80;1.00;;;;;;5080980;28;20411;-84
2023/09/11 09:52:15;;;;;;;12.30;9.70;;;25.60;1.00;;;;;;5077233;28;20495;-86
2023/09/11 09:54:43;;;;;;;9.00;8.10;;;25.70;1.00;;;;;;5074487;28;20436;-86
2023/09/11 09:57:11;;;;;;;10.02;8.23;;;26.00;1.00;;;;;;5054774;28;20480;-86
2023/09/11 09:59:36;;;;;;;9.45;8.50;;;26.10;1.00;;;;;;5052497;28;20472;-86
2023/09/11 10:02:02;;;;;;;9.17;8.20;;;26.20;1.00;;;;;;5034339;28;20492;-85
2023/09/11 10:04:28;;;;;;;9.05;8.18;;;26.10;1.00;;;;;;5035088;28;20476;-85
2023/09/11 10:06:54;;;;;;;8.98;8.15;;;26.30;1.00;;;;;;5064992;28;20392;-85
2023/09/11 10:09:21;;;;;;;8.32;7.50;;;25.30;1.00;;;;;;5035489;28;20394;-86
2023/09/11 10:11:46;;;;;;;10.00;8.38;;;26.40;1.00;;;;;;5034880;28;20378;-84
2023/09/11 10:14:13;;;;;;;9.30;7.87;;;26.50;1.00;;;;;;5035829;28;20386;-86
2023/09/11 10:16:38;;;;;;;11.43;7.85;;;26.80;1.00;;;;;;5035272;28;20429;-86
2023/09/11 10:19:04;;;;;;;11.77;7.80;;;26.80;1.00;;;;;;5052460;28;20434;-85
2023/09/11 10:21:31;;;;;;;8.50;7.70;;;25.60;1.00;;;;;;5051619;28;20407;-85
2023/09/11 10:23:56;;;;;;;8.30;7.50;;;27.30;1.00;;;;;;5054592;28;20423;-85
2023/09/11 10:26:44;;;;;;;9.45;8.55;;;27.10;1.00;;;;;;5072288;28;20453;-85
2023/09/11 10:29:15;;;;;;;8.15;7.35;;;26.90;1.00;;;;;;5054508;28;20380;-85
2023/09/11 10:31:58;;;;;;;7.78;7.00;;;25.70;1.00;;;;;;5062462;28;20389;-86
2023/09/11 10:34:25;;;;;;;8.50;7.20;;;27.50;1.00;;;;;;5034680;28;20392;-86
2023/09/11 10:36:57;;;;;;;8.48;7.57;;;28.20;1.00;;;;;;5036661;28;20382;-84
2023/09/11 10:39:22;;;;;;;8.90;8.00;;;27.20;1.00;;;;;;5039091;28;20391;-85
2023/09/11 10:41:48;;;;;;;8.20;7.40;;;27.50;1.00;;;;;;5054834;28;20387;-85
2023/09/11 10:44:15;;;;;;;9.30;7.70;;;27.60;1.00;;;;;;5065579;28;20360;-85
2023/09/11 10:46:50;;;;;;;8.70;7.80;;;27.70;1.00;;;;;;5069412;28;20417;-85
2023/09/11 10:49:20;;;;;;;9.50;7.57;;;27.80;1.00;;;;;;5037095;28;20412;-85
2023/09/11 10:51:48;;;;;;;10.88;8.13;;;27.90;1.00;;;;;;5054329;28;20389;-85
2023/09/11 10:54:16;;;;;;;8.40;7.57;;;28.90;1.00;;;;;;5052199;28;20468;-85
2023/09/11 10:56:42;;;;;;;8.00;7.30;;;29.50;1.00;;;;;;5057194;28;20383;-85
2023/09/11 10:59:08;;;;;;;8.18;7.38;;;28.80;1.00;;;;;;5072143;28;20391;-85
2023/09/11 11:01:35;;;;;;;9.50;6.85;;;29.40;1.00;;;;;;5072135;28;20470;-85
2023/09/11 11:04:04;;;;;;;9.33;7.60;;;28.40;1.00;;;;;;5054024;28;20395;-85
2023/09/11 11:06:33;;;;;;;8.30;7.50;;;28.40;1.00;;;;;;5052753;28;21548;-85
2023/09/11 11:08:59;;;;;;;7.28;6.70;;;28.60;1.00;;;;;;5052872;28;20391;-85
2023/09/11 11:11:31;;;;;;;8.20;7.40;;;29.10;1.00;;;;;;5065415;28;20433;-84
2023/09/11 11:14:11;;;;;;;7.40;6.80;;;28.70;1.00;;;;;;5074020;28;20379;-84
2023/09/11 11:16:38;;;;;;;7.53;6.82;;;29.30;1.00;;;;;;5068347;28;20421;-85
2023/09/11 11:19:04;;;;;;;7.82;6.90;;;29.20;1.00;;;;;;5042785;28;20802;-85
2023/09/11 11:21:40;;;;;;;7.80;6.80;;;30.00;1.00;;;;;;5033526;28;20417;-84
2023/09/11 11:24:08;;;;;;;7.65;6.93;;;29.50;1.00;;;;;;5033674;28;20390;-85
2023/09/11 11:26:40;;;;;;;8.30;6.70;;;29.40;1.00;;;;;;5033475;28;20905;-85
2023/09/11 11:29:06;;;;;;;8.57;6.88;;;29.80;1.00;;;;;;5041117;28;20771;-84
2023/09/11 11:31:37;;;;;;;7.03;6.43;;;30.60;1.00;;;;;;5073053;28;20367;-87
2023/09/11 11:34:03;;;;;;;9.55;6.00;;;30.50;1.00;;;;;;5053585;28;20440;-85
2023/09/11 11:36:30;;;;;;;6.95;6.25;;;31.00;1.00;;;;;;5053411;28;20747;-86
2023/09/11 11:38:56;;;;;;;7.82;6.50;;;31.60;1.00;;;;;;5050352;28;20763;-85
2023/09/11 11:41:22;;;;;;;7.53;5.90;;;31.60;1.00;;;;;;5033075;28;20385;-86
2023/09/11 11:43:48;;;;;;;6.30;5.80;;;32.40;1.00;;;;;;5050543;28;20396;-84
2023/09/11 11:46:15;;;;;;;6.32;5.72;;;32.40;1.00;;;;;;5071101;28;20890;-85
2023/09/11 11:48:42;;;;;;;6.28;5.68;;;31.80;1.00;;;;;;5053420;28;20391;-83
2023/09/11 11:51:08;;;;;;;6.32;5.25;;;32.00;1.00;;;;;;5056053;28;20948;-85
2023/09/11 11:53:35;;;;;;;6.10;5.53;;;31.80;1.00;;;;;;5077991;28;20409;-84
2023/09/11 11:56:03;;;;;;;6.70;6.10;;;32.10;1.00;;;;;;5068475;28;20401;-85
2023/09/11 11:58:29;;;;;;;5.80;5.40;;;32.10;1.00;;;;;;5072101;28;20373;-85
2023/09/11 12:00:55;;;;;;;6.40;5.80;;;31.60;1.00;;;;;;5064695;28;20418;-84
2023/09/11 12:03:21;;;;;;;6.27;5.60;;;31.50;1.00;;;;;;5081915;28;20400;-84
2023/09/11 12:05:46;;;;;;;6.10;5.70;;;31.70;1.00;;;;;;5070397;28;20420;-84
2023/09/11 12:08:13;;;;;;;6.40;5.80;;;31.70;1.00;;;;;;5065168;28;20417;-84
2023/09/11 12:10:48;;;;;;;5.90;5.40;;;31.90;1.00;;;;;;5042463;28;20888;-84
2023/09/11 12:13:17;;;;;;;6.35;5.82;;;31.10;1.00;;;;;;5049079;28;20404;-84
2023/09/11 12:15:50;;;;;;;5.78;5.22;;;31.40;1.00;;;;;;5059921;28;20530;-84
2023/09/11 12:18:16;;;;;;;6.55;5.95;;;32.00;1.00;;;;;;5074926;28;20383;-84
2023/09/11 12:20:51;;;;;;;6.15;5.65;;;31.80;1.00;;;;;;5056779;28;20793;-85
2023/09/11 12:23:17;;;;;;;6.18;5.57;;;32.10;1.00;;;;;;5062982;28;20412;-86
2023/09/11 12:25:42;;;;;;;8.02;6.18;;;31.70;1.00;;;;;;5036551;28;20827;-85
2023/09/11 12:28:08;;;;;;;6.67;5.30;;;31.90;1.00;;;;;;5070185;28;20392;-85
2023/09/11 12:30:34;;;;;;;6.40;5.80;;;31.70;1.00;;;;;;5056377;28;20816;-85
2023/09/11 12:33:00;;;;;;;5.68;5.18;;;32.10;1.00;;;;;;5066822;28;20738;-85
2023/09/11 12:35:31;;;;;;;6.27;5.77;;;31.40;1.00;;;;;;5056333;28;20384;-85
2023/09/11 12:37:57;;;;;;;5.93;5.43;;;31.80;1.00;;;;;;5042118;28;20397;-84
2023/09/11 12:40:22;;;;;;;5.82;5.20;;;31.80;1.00;;;;;;5055239;28;20560;-85
2023/09/11 12:42:48;;;;;;;5.50;5.00;;;31.80;1.00;;;;;;5042763;28;20480;-85
2023/09/11 12:45:14;;;;;;;5.80;4.73;;;32.10;1.00;;;;;;5072327;28;20410;-85
2023/09/11 12:47:39;;;;;;;5.20;4.70;;;32.20;1.00;;;;;;5053842;28;20407;-84
2023/09/11 12:50:06;;;;;;;5.00;4.60;;;32.10;1.00;;;;;;5043137;28;20472;-85
2023/09/11 12:52:32;;;;;;;6.07;4.60;;;31.70;1.00;;;;;;5053856;28;20389;-85
2023/09/11 12:54:58;;;;;;;6.50;4.70;;;32.00;1.00;;;;;;5036306;28;20389;-85
2023/09/11 12:57:23;;;;;;;6.07;4.60;;;31.80;1.00;;;;;;5054694;28;20424;-85
2023/09/11 12:59:49;;;;;;;5.05;4.50;;;32.00;1.00;;;;;;5059814;28;20384;-86
2023/09/11 13:02:15;;;;;;;6.37;5.17;;;32.40;1.00;;;;;;5075793;28;20449;-86
2023/09/11 13:04:44;;;;;;;5.35;4.85;;;32.10;1.00;;;;;;5054653;28;20894;-86
2023/09/11 13:07:10;;;;;;;6.13;4.63;;;31.90;1.00;;;;;;5080126;23;20420;-84
2023/09/11 13:09:36;;;;;;;6.07;5.00;;;33.50;1.00;;;;;;5094966;28;20367;-84
2023/09/11 13:12:18;;;;;;;6.70;4.90;;;31.80;1.00;;;;;;5101491;28;20406;-83
2023/09/11 13:14:48;;;;;;;5.43;4.47;;;32.00;1.00;;;;;;5093506;28;20384;-83
2023/09/11 13:17:13;;;;;;;4.95;4.55;;;33.10;1.00;;;;;;5078015;28;20391;-84
2023/09/11 13:19:42;;;;;;;5.60;4.50;;;31.90;1.00;;;;;;5079227;28;20383;-84
2023/09/11 13:22:07;;;;;;;6.40;4.87;;;32.10;1.00;;;;;;5074275;28;20496;-84
2023/09/11 13:24:33;;;;;;;7.00;5.30;;;32.40;1.00;;;;;;5079545;28;20376;-84
2023/09/11 13:26:59;;;;;;;4.90;4.40;;;32.20;1.00;;;;;;5080762;28;20801;-84
2023/09/11 13:29:24;;;;;;;5.60;5.10;;;32.40;1.00;;;;;;5081015;28;20388;-84
2023/09/11 13:31:50;;;;;;;4.68;4.28;;;33.00;1.00;;;;;;5079312;28;20395;-84
2023/09/11 13:34:16;;;;;;;7.07;4.80;;;31.90;1.00;;;;;;5081649;28;20441;-84